createdAt,value
2019-04-10T00:02:04.954Z,98464.73
2019-04-10T00:04:34.840Z,98465.05
2019-04-10T00:07:13.890Z,98464.89
2019-04-10T00:09:34.988Z,98459.41
2019-04-10T00:12:05.341Z,98460.52
2019-04-10T00:14:34.550Z,98466.22
2019-04-10T00:17:03.170Z,98462.14
2019-04-10T00:19:32.863Z,98460.06
2019-04-10T00:22:02.814Z,98458.42
2019-04-10T00:24:32.319Z,98453.53
2019-04-10T00:27:02.054Z,98451.94
2019-04-10T00:29:30.831Z,98447.84
2019-04-10T00:32:01.756Z,98452.30
2019-04-10T00:34:30.186Z,98453.89
2019-04-10T00:36:59.539Z,98454.09
2019-04-10T00:39:28.684Z,98445.47
2019-04-10T00:41:58.704Z,98450.92
2019-04-10T00:44:27.905Z,98463.41
2019-04-10T00:46:58.913Z,98461.04
2019-04-10T00:49:27.984Z,98463.47
2019-04-10T00:51:57.537Z,98462.37
2019-04-10T00:54:26.338Z,98459.72
2019-04-10T00:56:55.587Z,98456.72
2019-04-10T00:59:24.526Z,98453.19
2019-04-10T01:01:54.271Z,98463.20
2019-04-10T01:04:23.061Z,98451.59
2019-04-10T01:06:52.496Z,98450.80
2019-04-10T01:09:21.756Z,98438.86
2019-04-10T01:11:50.472Z,98447.53
2019-04-10T01:14:19.647Z,98444.84
2019-04-10T01:16:49.419Z,98450.51
2019-04-10T01:19:18.158Z,98431.59
2019-04-10T01:21:46.855Z,98446.19
2019-04-10T01:24:15.881Z,98452.72
2019-04-10T01:26:45.444Z,98449.72
2019-04-10T01:29:15.459Z,98449.44
2019-04-10T01:31:44.281Z,98450.24
2019-04-10T01:34:13.582Z,98444.06
2019-04-10T01:36:42.637Z,98445.42
2019-04-10T01:39:17.956Z,98448.70
2019-04-10T01:41:48.029Z,98448.42
2019-04-10T01:44:17.279Z,98459.80
2019-04-10T01:46:46.600Z,98462.51
2019-04-10T01:49:15.679Z,98458.98
2019-04-10T01:51:44.397Z,98441.66
2019-04-10T01:54:13.116Z,98453.57
2019-04-10T01:56:42.307Z,98446.26
2019-04-10T01:59:11.848Z,98440.31
2019-04-10T02:01:48.397Z,98445.98
2019-04-10T02:04:17.094Z,98438.97
2019-04-10T02:06:45.804Z,98445.45
2019-04-10T02:09:15.034Z,98447.63
2019-04-10T02:11:44.089Z,98451.41
2019-04-10T02:14:13.900Z,98448.16
2019-04-10T02:16:43.420Z,98448.45
2019-04-10T02:19:12.260Z,98449.22
2019-04-10T02:21:42.151Z,98448.95
2019-04-10T02:24:11.129Z,98452.20
2019-04-10T02:26:39.899Z,98457.31
2019-04-10T02:29:09.266Z,98451.08
2019-04-10T02:31:39.104Z,98453.55
2019-04-10T02:34:09.394Z,98455.74
2019-04-10T02:36:39.067Z,98452.22
2019-04-10T02:39:18.999Z,98448.16
2019-04-10T02:41:38.831Z,98451.39
2019-04-10T02:44:07.983Z,98450.04
2019-04-10T02:46:37.110Z,98449.20
2019-04-10T02:49:08.044Z,98453.48
2019-04-10T02:51:38.707Z,98446.69
2019-04-10T02:54:09.420Z,98453.37
2019-04-10T02:56:39.167Z,98462.31
2019-04-10T02:59:09.410Z,98455.33
2019-04-10T03:01:39.810Z,98454.00
2019-04-10T03:04:09.793Z,98455.39
2019-04-10T03:06:39.740Z,98461.31
2019-04-10T03:09:25.999Z,98454.28
2019-04-10T03:11:39.706Z,98457.55
2019-04-10T03:14:08.513Z,98459.16
2019-04-10T03:16:37.622Z,98459.42
2019-04-10T03:19:07.389Z,98456.94
2019-04-10T03:21:37.424Z,98466.12
2019-04-10T03:24:06.368Z,98464.97
2019-04-10T03:26:35.343Z,98459.33
2019-04-10T03:29:05.273Z,98460.69
2019-04-10T03:31:34.566Z,98459.92
2019-04-10T03:34:31.081Z,98452.83
2019-04-10T03:37:00.019Z,98462.52
2019-04-10T03:39:31.720Z,98470.02
2019-04-10T03:42:00.905Z,98466.20
2019-04-10T03:44:30.444Z,98463.55
2019-04-10T03:46:59.307Z,98456.88
2019-04-10T03:49:28.035Z,98458.72
2019-04-10T03:51:56.995Z,98462.20
2019-04-10T03:54:25.929Z,98462.65
2019-04-10T03:56:54.881Z,98462.56
2019-04-10T03:59:24.356Z,98462.63
2019-04-10T04:01:53.456Z,98460.69
2019-04-10T04:04:23.770Z,98459.59
2019-04-10T04:06:52.536Z,98459.80
2019-04-10T04:09:21.675Z,98463.02
2019-04-10T04:11:50.669Z,98464.39
2019-04-10T04:14:19.976Z,98463.02
2019-04-10T04:16:49.269Z,98469.44
2019-04-10T04:19:22.018Z,98471.63
2019-04-10T04:21:52.204Z,98468.89
2019-04-10T04:24:25.529Z,98476.95
2019-04-10T04:26:55.110Z,98475.64
2019-04-10T04:29:24.772Z,98476.80
2019-04-10T04:31:54.511Z,98479.39
2019-04-10T04:34:23.608Z,98475.27
2019-04-10T04:36:53.584Z,98485.05
2019-04-10T04:39:26.842Z,98483.41
2019-04-10T04:41:53.643Z,98484.12
2019-04-10T04:44:22.561Z,98488.83
2019-04-10T04:46:52.640Z,98484.76
2019-04-10T04:49:21.748Z,98478.10
2019-04-10T04:51:50.773Z,98480.49
2019-04-10T04:54:19.752Z,98473.30
2019-04-10T04:56:48.462Z,98485.82
2019-04-10T04:59:18.353Z,98489.85
2019-04-10T05:01:47.586Z,98490.56
2019-04-10T05:04:17.276Z,98489.39
2019-04-10T05:06:46.691Z,98491.27
2019-04-10T05:09:28.341Z,98495.92
2019-04-10T05:11:46.863Z,98501.13
2019-04-10T05:14:17.398Z,98501.97
2019-04-10T05:16:47.806Z,98505.70
2019-04-10T05:19:17.393Z,98513.25
2019-04-10T05:21:46.178Z,98518.24
2019-04-10T05:24:15.794Z,98519.52
2019-04-10T05:26:44.911Z,98521.66
2019-04-10T05:29:15.304Z,98528.19
2019-04-10T05:31:44.728Z,98525.53
2019-04-10T05:34:13.947Z,98529.44
2019-04-10T05:36:43.852Z,98523.45
2019-04-10T05:39:12.915Z,98532.42
2019-04-10T05:41:42.093Z,98535.53
2019-04-10T05:44:11.590Z,98532.76
2019-04-10T05:46:40.920Z,98534.35
2019-04-10T05:49:10.772Z,98535.19
2019-04-10T05:51:39.611Z,98542.45
2019-04-10T05:54:08.561Z,98544.93
2019-04-10T05:56:38.406Z,98542.28
2019-04-10T05:59:09.797Z,98543.36
2019-04-10T06:01:41.193Z,98550.38
2019-04-10T06:04:09.268Z,98550.39
2019-04-10T06:06:38.807Z,98553.62
2019-04-10T06:09:09.254Z,98550.88
2019-04-10T06:11:39.329Z,98556.62
2019-04-10T06:14:08.595Z,98553.35
2019-04-10T06:16:37.533Z,98555.31
2019-04-10T06:19:07.312Z,98556.89
2019-04-10T06:21:36.019Z,98558.58
2019-04-10T06:24:05.827Z,98562.17
2019-04-10T06:26:35.529Z,98557.03
2019-04-10T06:29:04.666Z,98560.56
2019-04-10T06:31:33.631Z,98560.87
2019-04-10T06:34:02.543Z,98560.04
2019-04-10T06:36:31.451Z,98569.80
2019-04-10T06:39:00.425Z,98568.99
2019-04-10T06:41:30.603Z,98574.73
2019-04-10T06:43:59.446Z,98576.86
2019-04-10T06:46:28.489Z,98573.13
2019-04-10T06:48:58.447Z,98574.44
2019-04-10T06:51:27.503Z,98576.90
2019-04-10T06:54:03.619Z,98580.48
2019-04-10T06:56:29.246Z,98582.16
2019-04-10T06:58:58.316Z,98578.09
2019-04-10T07:01:39.008Z,98577.04
2019-04-10T07:04:02.877Z,98579.20
2019-04-10T07:06:45.010Z,98585.69
2019-04-10T07:08:59.232Z,98583.30
2019-04-10T07:11:30.832Z,98586.02
2019-04-10T07:13:59.788Z,98581.67
2019-04-10T07:16:32.270Z,98586.25
2019-04-10T07:19:03.098Z,98584.89
2019-04-10T07:21:30.865Z,98585.18
2019-04-10T07:24:05.056Z,98582.20
2019-04-10T07:26:38.000Z,98585.49
2019-04-10T07:29:02.571Z,98588.73
2019-04-10T07:31:35.033Z,98583.31
2019-04-10T07:34:01.834Z,98584.37
2019-04-10T07:36:30.786Z,98583.28
2019-04-10T07:38:59.488Z,98588.16
2019-04-10T07:41:31.498Z,98596.30
2019-04-10T07:43:59.851Z,98601.44
2019-04-10T07:46:28.799Z,98602.26
2019-04-10T07:48:58.631Z,98598.48
2019-04-10T07:51:27.668Z,98602.00
2019-04-10T07:53:57.739Z,98596.81
2019-04-10T07:56:26.764Z,98600.30
2019-04-10T07:58:56.000Z,98600.00
2019-04-10T08:01:25.048Z,98600.27
2019-04-10T08:03:54.038Z,98601.59
2019-04-10T08:06:23.582Z,98598.90
2019-04-10T08:08:53.341Z,98600.78
2019-04-10T08:11:22.436Z,98604.51
2019-04-10T08:13:51.644Z,98605.56
2019-04-10T08:16:21.049Z,98610.59
2019-04-10T08:18:49.886Z,98612.23
2019-04-10T08:21:19.793Z,98610.78
2019-04-10T08:23:48.811Z,98608.07
2019-04-10T08:26:18.328Z,98611.05
2019-04-10T08:28:47.604Z,98611.00
2019-04-10T08:31:17.034Z,98610.36
2019-04-10T08:33:46.199Z,98615.48
2019-04-10T08:36:15.201Z,98617.27
2019-04-10T08:38:44.174Z,98608.25
2019-04-10T08:41:13.119Z,98613.93
2019-04-10T08:43:41.921Z,98617.97
2019-04-10T08:46:10.931Z,98615.25
2019-04-10T08:48:41.185Z,98606.63
2019-04-10T08:51:10.762Z,98612.93
2019-04-10T08:53:39.547Z,98612.01
2019-04-10T08:56:08.250Z,98612.80
2019-04-10T08:58:37.434Z,98619.80
2019-04-10T09:01:07.199Z,98618.09
2019-04-10T09:03:37.079Z,98607.23
2019-04-10T09:06:07.224Z,98617.34
2019-04-10T09:08:37.155Z,98611.13
2019-04-10T09:11:07.027Z,98614.24
2019-04-10T09:13:36.834Z,98615.36
2019-04-10T09:16:06.754Z,98618.23
2019-04-10T09:18:36.997Z,98623.30
2019-04-10T09:21:07.036Z,98615.51
2019-04-10T09:23:42.612Z,98615.00
2019-04-10T09:26:06.547Z,98616.47
2019-04-10T09:28:35.877Z,98615.44
2019-04-10T09:31:05.149Z,98618.17
2019-04-10T09:33:34.875Z,98615.38
2019-04-10T09:36:04.703Z,98617.45
2019-04-10T09:38:34.767Z,98612.45
2019-04-10T09:41:03.809Z,98612.89
2019-04-10T09:43:33.778Z,98612.81
2019-04-10T09:46:02.873Z,98615.52
2019-04-10T09:48:31.910Z,98609.52
2019-04-10T09:51:00.882Z,98610.20
2019-04-10T09:53:29.768Z,98604.00
2019-04-10T09:55:58.951Z,98611.14
2019-04-10T09:58:27.649Z,98601.86
2019-04-10T10:00:56.531Z,98612.77
2019-04-10T10:03:26.274Z,98606.66
2019-04-10T10:05:55.226Z,98613.16
2019-04-10T10:08:24.791Z,98611.09
2019-04-10T10:10:54.141Z,98605.30
2019-04-10T10:13:23.545Z,98614.81
2019-04-10T10:15:52.594Z,98610.23
2019-04-10T10:18:21.543Z,98614.73
2019-04-10T10:20:50.528Z,98609.91
2019-04-10T10:23:19.977Z,98614.65
2019-04-10T10:25:49.197Z,98615.88
2019-04-10T10:28:18.819Z,98613.48
2019-04-10T10:30:47.652Z,98618.64
2019-04-10T10:33:17.462Z,98616.75
2019-04-10T10:35:47.334Z,98612.52
2019-04-10T10:38:16.167Z,98618.06
2019-04-10T10:40:45.537Z,98613.73
2019-04-10T10:43:18.424Z,98615.67
2019-04-10T10:45:47.421Z,98605.87
2019-04-10T10:48:16.185Z,98614.25
2019-04-10T10:50:45.677Z,98602.78
2019-04-10T10:53:14.471Z,98609.83
2019-04-10T10:55:43.477Z,98606.41
2019-04-10T10:58:13.314Z,98605.08
2019-04-10T11:00:43.115Z,98605.97
2019-04-10T11:03:12.160Z,98605.34
2019-04-10T11:05:40.949Z,98609.55
2019-04-10T11:08:11.107Z,98608.19
2019-04-10T11:10:41.341Z,98602.84
2019-04-10T11:13:10.469Z,98603.95
2019-04-10T11:15:43.674Z,98612.42
2019-04-10T11:18:10.304Z,98615.92
2019-04-10T11:20:39.480Z,98615.37
2019-04-10T11:23:09.412Z,98615.37
2019-04-10T11:25:40.148Z,98608.04
2019-04-10T11:28:09.218Z,98601.73
2019-04-10T11:30:38.348Z,98609.98
2019-04-10T11:33:08.438Z,98603.02
2019-04-10T11:35:37.565Z,98596.76
2019-04-10T11:38:07.202Z,98612.53
2019-04-10T11:40:36.572Z,98613.61
2019-04-10T11:43:07.560Z,98612.09
2019-04-10T11:45:41.858Z,98615.09
2019-04-10T11:48:07.956Z,98623.07
2019-04-10T11:50:38.438Z,98623.73
2019-04-10T11:53:09.600Z,98624.13
2019-04-10T11:55:43.677Z,98624.82
2019-04-10T11:58:13.795Z,98625.85
2019-04-10T12:00:50.547Z,98632.89
2019-04-10T12:03:13.515Z,98637.52
2019-04-10T12:05:46.213Z,98628.20
2019-04-10T12:08:36.236Z,98623.37
2019-04-10T12:13:17.071Z,98631.97
2019-04-10T12:15:46.057Z,98631.91
2019-04-10T12:18:14.842Z,98626.94
2019-04-10T12:20:45.139Z,98626.94
2019-04-10T12:23:14.035Z,98630.11
2019-04-10T12:25:43.033Z,98626.17
2019-04-10T12:28:11.776Z,98626.55
2019-04-10T12:30:41.597Z,98618.52
2019-04-10T12:33:11.473Z,98624.66
2019-04-10T12:35:40.688Z,98618.33
2019-04-10T12:38:10.806Z,98615.31
2019-04-10T12:40:40.633Z,98619.05
2019-04-10T12:43:10.507Z,98610.55
2019-04-10T12:45:40.285Z,98610.77
2019-04-10T12:48:10.464Z,98620.16
2019-04-10T12:50:39.206Z,98621.37
2019-04-10T12:53:07.964Z,98613.61
2019-04-10T12:55:36.788Z,98623.11
2019-04-10T12:58:10.793Z,98615.23
2019-04-10T13:00:36.193Z,98611.59
2019-04-10T13:03:05.175Z,98613.13
2019-04-10T13:05:34.551Z,98614.95
2019-04-10T13:08:14.930Z,98613.92
2019-04-10T13:10:35.758Z,98614.42
2019-04-10T13:13:04.591Z,98617.95
2019-04-10T13:15:35.655Z,98617.25
2019-04-10T13:18:05.921Z,98614.27
2019-04-10T13:20:34.885Z,98616.86
2019-04-10T13:23:04.527Z,98609.91
2019-04-10T13:25:34.478Z,98612.14
2019-04-10T13:28:03.409Z,98605.69
2019-04-10T13:30:44.115Z,98602.55
2019-04-10T13:33:02.769Z,98608.84
2019-04-10T13:35:32.457Z,98607.07
2019-04-10T13:38:01.321Z,98617.25
2019-04-10T13:40:30.372Z,98614.88
2019-04-10T13:42:59.150Z,98607.48
2019-04-10T13:45:29.015Z,98610.06
2019-04-10T13:47:58.822Z,98613.33
2019-04-10T13:50:27.637Z,98606.88
2019-04-10T13:52:57.429Z,98600.74
2019-04-10T13:55:26.415Z,98609.42
2019-04-10T13:57:55.371Z,98613.30
2019-04-10T14:00:33.538Z,98612.98
2019-04-10T14:03:03.902Z,98618.02
2019-04-10T14:05:34.009Z,98614.98
2019-04-10T14:08:02.981Z,98615.30
2019-04-10T14:10:31.767Z,98616.93
2019-04-10T14:13:00.664Z,98615.39
2019-04-10T14:15:30.357Z,98621.61
2019-04-10T14:17:59.824Z,98630.50
2019-04-10T14:20:29.034Z,98628.52
2019-04-10T14:23:22.160Z,98628.52
2019-04-10T14:26:06.788Z,98626.50
2019-04-10T14:28:35.590Z,98629.02
2019-04-10T14:31:11.719Z,98618.69
2019-04-10T14:33:40.524Z,98618.69
2019-04-10T14:36:09.312Z,98628.34
2019-04-10T14:38:39.033Z,98625.84
2019-04-10T14:41:07.860Z,98625.95
2019-04-10T14:43:37.549Z,98628.14
2019-04-10T14:46:10.326Z,98633.29
2019-04-10T14:48:40.360Z,98642.55
2019-04-10T14:51:10.277Z,98642.55
2019-04-10T14:53:39.452Z,98636.14
2019-04-10T14:56:08.352Z,98645.05
2019-04-10T14:58:37.394Z,98638.88
2019-04-10T15:01:08.377Z,98504.88
2019-04-10T15:03:36.545Z,98637.94
2019-04-10T15:06:07.039Z,98637.94
2019-04-10T15:08:35.854Z,98630.07
2019-04-10T15:11:04.626Z,98634.00
2019-04-10T15:13:33.951Z,98634.00
2019-04-10T15:16:03.051Z,98649.42
2019-04-10T15:18:33.028Z,98651.35
2019-04-10T15:21:02.843Z,98661.53
2019-04-10T15:23:31.879Z,98660.08
2019-04-10T15:26:01.849Z,98664.02
2019-04-10T15:28:31.722Z,98660.58
2019-04-10T15:31:01.456Z,98657.78
2019-04-10T15:33:31.761Z,98657.78
2019-04-10T15:36:01.854Z,98653.39
2019-04-10T15:38:30.683Z,98659.92
2019-04-10T15:41:00.913Z,98656.34
2019-04-10T15:43:29.845Z,98653.80
2019-04-10T15:45:58.603Z,98656.53
2019-04-10T15:48:27.785Z,98653.09
2019-04-10T15:50:56.538Z,98655.35
2019-04-10T15:53:26.518Z,98656.20
2019-04-10T15:55:55.892Z,98660.64
2019-04-10T15:58:25.670Z,98663.59
2019-04-10T16:00:57.139Z,98665.31
2019-04-10T16:03:26.227Z,98665.31
2019-04-10T16:05:55.716Z,98669.15
2019-04-10T16:08:26.109Z,98667.84
2019-04-10T16:11:01.608Z,98670.81
2019-04-10T16:13:36.870Z,98668.48
2019-04-10T16:16:42.278Z,98668.26
2019-04-10T16:19:22.431Z,98668.26
2019-04-10T16:21:52.642Z,98669.69
2019-04-10T16:24:22.844Z,98667.50
2019-04-10T16:26:51.814Z,98670.79
2019-04-10T16:29:20.993Z,98676.75
2019-04-10T16:31:50.272Z,98676.75
2019-04-10T16:34:19.815Z,98680.83
2019-04-10T16:36:50.014Z,98676.44
2019-04-10T16:39:19.706Z,98676.27
2019-04-10T16:41:48.457Z,98686.47
2019-04-10T16:44:17.512Z,98686.47
2019-04-10T16:46:49.318Z,98680.41
2019-04-10T16:49:17.433Z,98685.95
2019-04-10T16:51:46.451Z,98676.95
2019-04-10T16:54:17.603Z,98690.23
2019-04-10T16:56:45.684Z,98686.98
2019-04-10T16:59:14.598Z,98680.20
2019-04-10T17:01:46.808Z,98695.69
2019-04-10T17:04:16.778Z,98691.36
2019-04-10T17:06:46.352Z,98698.84
2019-04-10T17:09:18.698Z,98697.73
2019-04-10T17:11:47.594Z,98699.02
2019-04-10T17:14:17.476Z,98702.94
2019-04-10T17:16:46.202Z,98703.71
2019-04-10T17:19:15.993Z,98706.71
2019-04-10T17:21:44.990Z,98704.13
2019-04-10T17:24:13.986Z,98698.28
2019-04-10T17:26:43.439Z,98701.05
2019-04-10T17:29:12.740Z,98706.80
2019-04-10T17:31:42.490Z,98697.59
2019-04-10T17:34:11.333Z,98702.73
2019-04-10T17:36:41.090Z,98712.28
2019-04-10T17:39:13.601Z,98715.59
2019-04-10T17:41:42.397Z,98709.17
2019-04-10T17:44:11.710Z,98715.36
2019-04-10T17:46:41.625Z,98714.89
2019-04-10T17:49:11.964Z,98714.26
2019-04-10T17:51:41.857Z,98724.00
2019-04-10T17:54:11.826Z,98718.70
2019-04-10T17:56:41.138Z,98726.53
2019-04-10T17:59:09.969Z,98728.55
2019-04-10T18:01:38.930Z,98735.95
2019-04-10T18:04:07.876Z,98731.48
2019-04-10T18:06:36.909Z,98739.21
2019-04-10T18:09:09.537Z,98737.45
2019-04-10T18:11:39.326Z,98746.13
2019-04-10T18:14:09.167Z,98750.87
2019-04-10T18:16:38.199Z,98755.02
2019-04-10T18:19:06.991Z,98755.35
2019-04-10T18:21:37.090Z,98757.61
2019-04-10T18:24:06.233Z,98764.75
2019-04-10T18:26:36.060Z,98768.09
2019-04-10T18:29:05.931Z,98772.95
2019-04-10T18:31:35.239Z,98773.84
2019-04-10T18:34:08.123Z,98783.38
2019-04-10T18:36:34.981Z,98783.20
2019-04-10T18:39:11.318Z,98794.39
2019-04-10T18:41:40.221Z,98789.83
2019-04-10T18:44:09.073Z,98789.05
2019-04-10T18:46:38.153Z,98795.84
2019-04-10T18:49:07.294Z,98792.35
2019-04-10T18:51:36.379Z,98800.66
2019-04-10T18:54:05.956Z,98800.61
2019-04-10T18:56:35.438Z,98804.20
2019-04-10T18:59:12.272Z,98801.31
2019-04-10T19:01:51.720Z,98805.39
2019-04-10T19:04:25.924Z,98806.43
2019-04-10T19:06:58.738Z,98808.12
2019-04-10T19:09:30.407Z,98802.16
2019-04-10T19:12:00.637Z,98806.88
2019-04-10T19:14:30.321Z,98813.95
2019-04-10T19:17:00.322Z,98814.26
2019-04-10T19:19:29.207Z,98818.95
2019-04-10T19:21:57.913Z,98824.09
2019-04-10T19:24:30.113Z,98819.71
2019-04-10T19:27:00.030Z,98819.75
2019-04-10T19:29:29.677Z,98822.75
2019-04-10T19:32:01.873Z,98819.78
2019-04-10T19:34:31.695Z,98823.86
2019-04-10T19:37:00.684Z,98824.16
2019-04-10T19:39:29.979Z,98825.83
2019-04-10T19:41:58.820Z,98823.69
2019-04-10T19:44:28.970Z,98826.63
2019-04-10T19:46:57.889Z,98825.56
2019-04-10T19:49:26.796Z,98828.27
2019-04-10T19:51:56.060Z,98831.28
2019-04-10T19:54:24.723Z,98829.38
2019-04-10T19:56:53.424Z,98830.91
2019-04-10T19:59:22.909Z,98836.09
2019-04-10T20:01:52.748Z,98834.47
2019-04-10T20:04:21.799Z,98841.00
2019-04-10T20:06:50.753Z,98838.29
2019-04-10T20:09:20.285Z,98841.86
2019-04-10T20:11:53.057Z,98841.86
2019-04-10T20:14:20.050Z,98836.41
2019-04-10T20:16:49.485Z,98840.50
2019-04-10T20:19:18.211Z,98840.00
2019-04-10T20:21:46.870Z,98840.54
2019-04-10T20:24:16.387Z,98839.73
2019-04-10T20:26:45.621Z,98850.91
2019-04-10T20:29:15.139Z,98852.26
2019-04-10T20:31:45.626Z,98855.54
2019-04-10T20:34:15.748Z,98859.06
2019-04-10T20:36:44.897Z,98859.89
2019-04-10T20:39:14.802Z,98860.42
2019-04-10T20:41:51.204Z,98866.39
2019-04-10T20:44:14.383Z,98863.93
2019-04-10T20:46:43.043Z,98864.23
2019-04-10T20:49:12.095Z,98865.06
2019-04-10T20:51:41.989Z,98871.88
2019-04-10T20:54:11.045Z,98877.30
2019-04-10T20:56:40.979Z,98874.03
2019-04-10T20:59:10.062Z,98881.64
2019-04-10T21:01:39.326Z,98877.58
2019-04-10T21:04:09.211Z,98882.19
2019-04-10T21:06:40.860Z,98886.03
2019-04-10T21:09:09.701Z,98893.08
2019-04-10T21:11:39.894Z,98889.83
2019-04-10T21:14:09.260Z,98897.98
2019-04-10T21:16:38.192Z,98897.44
2019-04-10T21:19:09.430Z,98891.72
2019-04-10T21:21:39.093Z,98897.42
2019-04-10T21:24:07.753Z,98894.16
2019-04-10T21:26:36.744Z,98898.52
2019-04-10T21:29:09.384Z,98893.61
2019-04-10T21:31:56.813Z,98899.61
2019-04-10T21:37:04.638Z,98904.74
2019-04-10T21:39:33.947Z,98910.99
2019-04-10T21:42:12.251Z,98912.66
2019-04-10T21:44:33.174Z,98910.20
2019-04-10T21:47:01.929Z,98915.89
2019-04-10T21:49:30.922Z,98912.64
2019-04-10T21:52:00.037Z,98917.00
2019-04-10T21:54:29.351Z,98919.71
2019-04-10T21:56:58.257Z,98921.33
2019-04-10T21:59:26.957Z,98921.59
2019-04-10T22:01:56.963Z,98919.70
2019-04-10T22:04:27.279Z,98928.92
2019-04-10T22:07:09.894Z,98925.38
2019-04-10T22:10:16.105Z,98931.38
2019-04-10T22:12:47.696Z,98926.19
2019-04-10T22:15:47.007Z,98921.58
2019-04-10T22:18:16.934Z,98924.55
2019-04-10T22:20:45.863Z,98927.83
2019-04-10T22:23:15.934Z,98931.88
2019-04-10T22:25:45.894Z,98934.57
2019-04-10T22:28:15.032Z,98934.82
2019-04-10T22:30:43.970Z,98938.34
2019-04-10T22:33:13.948Z,98937.48
2019-04-10T22:35:42.836Z,98940.20
2019-04-10T22:38:11.509Z,98954.31
2019-04-10T22:40:40.476Z,98945.36
2019-04-10T22:43:09.603Z,98949.77
2019-04-10T22:45:38.317Z,98956.84
2019-04-10T22:48:08.341Z,98946.27
2019-04-10T22:50:38.419Z,98953.81
2019-04-10T22:53:08.851Z,98954.93
2019-04-10T22:55:38.063Z,98958.66
2019-04-10T22:58:06.679Z,98958.70
2019-04-10T23:00:35.532Z,98960.91
2019-04-10T23:03:05.620Z,98957.66
2019-04-10T23:05:36.391Z,98962.81
2019-04-10T23:08:05.430Z,98965.80
2019-04-10T23:10:35.251Z,98959.24
2019-04-10T23:13:10.490Z,98961.11
2019-04-10T23:15:39.954Z,98957.87
2019-04-10T23:18:09.645Z,98962.70
2019-04-10T23:20:38.347Z,98962.37
2019-04-10T23:23:07.024Z,98966.75
2019-04-10T23:25:36.534Z,98965.53
2019-04-10T23:28:05.569Z,98965.63
2019-04-10T23:30:35.106Z,98961.61
2019-04-10T23:33:04.192Z,98966.45
2019-04-10T23:35:33.695Z,98971.83
2019-04-10T23:38:03.590Z,98978.25
2019-04-10T23:40:32.765Z,98970.41
2019-04-10T23:43:09.600Z,98978.54
2019-04-10T23:45:32.189Z,98976.61
2019-04-10T23:48:00.872Z,98979.06
2019-04-10T23:50:30.313Z,98983.98
2019-04-10T23:53:00.342Z,98984.97
2019-04-10T23:55:30.208Z,98987.63
2019-04-10T23:57:59.993Z,98990.91
